Blenheim, New Jersey
Current Conditions -  °F | °C
As of 10:54 AM on Saturday 22 Nov 2014 (Local Time) from KPHL Reporting Station
Clear Clear  
Wind Chill: 28°   Ceiling: Unl
Heat Index: 38°   Visibility: 10mi
Dew Point: 17°   Wind: 18mph
Humidity: 43%   Direction: 230°SW
Pressure: 30.49"   Gusts: NA
Location:  39.778°N, 75.0552°W
Report Text: KPHL 221554Z 23016KT 10SM CLR 03/M08 A3049 RMK AO2 SLP322 T00331083 $
Loading
Personal Weather Stations






























Interactive Weather Map New forecast layout! Learn more

10-Day Weather Forecast

Advertisements
Track Severe Weather on mobile